createdAt,value
2023-01-27T00:00:51.500Z,21.10
2023-01-27T00:06:01.324Z,18.40
2023-01-27T00:11:23.305Z,19.80
2023-01-27T00:16:26.316Z,24.10
2023-01-27T00:21:47.854Z,19.60
2023-01-27T00:26:50.961Z,18.90
2023-01-27T00:32:12.707Z,20.50
2023-01-27T00:37:15.811Z,19.10
2023-01-27T00:42:18.922Z,21.60
2023-01-27T00:47:21.943Z,22.90
2023-01-27T00:52:25.167Z,21.60
2023-01-27T00:57:28.148Z,21.70
2023-01-27T01:02:31.281Z,21.50
2023-01-27T01:07:34.468Z,21.60
2023-01-27T01:12:37.401Z,21.10
2023-01-27T01:17:40.374Z,19.30
2023-01-27T01:22:43.483Z,21.10
2023-01-27T01:27:46.590Z,20.00
2023-01-27T01:32:49.497Z,18.30
2023-01-27T01:37:54.456Z,17.30
2023-01-27T01:43:11.277Z,18.90
2023-01-27T01:48:34.154Z,22.00
2023-01-27T01:53:49.547Z,18.90
2023-01-27T01:58:55.832Z,19.60
2023-01-27T02:04:02.929Z,20.10
2023-01-27T02:09:05.837Z,20.70
2023-01-27T02:14:10.584Z,18.60
2023-01-27T02:19:28.132Z,20.50
2023-01-27T02:24:41.992Z,21.80
2023-01-27T02:29:44.898Z,17.90
2023-01-27T02:34:48.006Z,20.50
2023-01-27T02:39:52.399Z,20.00
2023-01-27T02:44:55.457Z,21.30
2023-01-27T02:49:58.471Z,16.40
2023-01-27T02:55:01.598Z,19.90
2023-01-27T03:00:05.372Z,17.30
2023-01-27T03:05:08.396Z,18.30
2023-01-27T03:10:11.828Z,18.40
2023-01-27T03:15:33.493Z,14.20
2023-01-27T03:20:36.669Z,16.10
2023-01-27T03:25:47.886Z,13.30
2023-01-27T03:30:50.939Z,15.10
2023-01-27T03:36:13.442Z,14.10
2023-01-27T03:41:34.778Z,14.60
2023-01-27T03:46:37.887Z,17.10
2023-01-27T03:51:40.889Z,16.70
2023-01-27T03:56:43.898Z,14.10
2023-01-27T04:01:47.248Z,15.80
2023-01-27T04:07:01.162Z,16.10
2023-01-27T04:12:06.473Z,16.60
2023-01-27T04:17:18.556Z,16.00
2023-01-27T04:22:21.459Z,17.20
2023-01-27T04:27:24.466Z,17.50
2023-01-27T04:32:27.671Z,17.00
2023-01-27T04:37:30.681Z,16.50
2023-01-27T04:42:33.686Z,18.60
2023-01-27T04:47:36.588Z,19.00
2023-01-27T04:52:39.599Z,19.70
2023-01-27T04:57:42.498Z,18.50
2023-01-27T05:02:45.571Z,16.70
2023-01-27T05:07:48.619Z,18.30
2023-01-27T05:12:51.829Z,17.10
2023-01-27T05:17:55.178Z,17.40
2023-01-27T05:23:18.216Z,16.50
2023-01-27T05:28:21.432Z,15.70
2023-01-27T05:33:24.332Z,16.70
2023-01-27T05:38:27.451Z,17.70
2023-01-27T05:43:32.757Z,16.60
2023-01-27T05:48:37.903Z,18.90
2023-01-27T05:53:40.965Z,16.90
2023-01-27T05:58:44.380Z,15.90
2023-01-27T06:03:47.915Z,16.30
2023-01-27T06:08:51.415Z,16.60
2023-01-27T06:13:55.161Z,17.20
2023-01-27T06:18:58.826Z,18.50
2023-01-27T06:24:01.994Z,19.30
2023-01-27T06:29:05.183Z,20.40
2023-01-27T06:34:08.190Z,17.70
2023-01-27T06:39:11.405Z,19.20
2023-01-27T06:44:14.510Z,19.60
2023-01-27T06:49:17.725Z,17.70
2023-01-27T06:54:21.147Z,19.40
2023-01-27T06:59:24.252Z,23.80
2023-01-27T07:04:27.870Z,18.10
2023-01-27T07:09:33.620Z,21.40
2023-01-27T07:14:43.022Z,20.60
2023-01-27T07:19:46.205Z,18.80
2023-01-27T07:24:49.208Z,24.50
2023-01-27T07:29:52.644Z,21.20
2023-01-27T07:34:55.741Z,23.90
2023-01-27T07:39:58.676Z,23.30
2023-01-27T07:45:01.857Z,22.50
2023-01-27T07:50:05.871Z,21.20
2023-01-27T07:55:09.860Z,20.60
2023-01-27T08:00:15.685Z,22.40
2023-01-27T08:05:20.746Z,22.00
2023-01-27T08:10:24.059Z,21.50
2023-01-27T08:15:27.167Z,21.50
2023-01-27T08:20:30.579Z,22.00
2023-01-27T08:25:33.893Z,18.80
2023-01-27T08:30:37.236Z,21.20
2023-01-27T08:35:44.819Z,19.20
2023-01-27T08:40:48.340Z,15.10
2023-01-27T08:45:53.039Z,20.00
2023-01-27T08:50:56.817Z,17.00
2023-01-27T08:56:04.876Z,20.90
2023-01-27T09:01:08.772Z,19.80
2023-01-27T09:06:13.429Z,13.70
2023-01-27T09:11:18.053Z,15.70
2023-01-27T09:16:21.090Z,14.60
2023-01-27T09:21:25.519Z,17.30
2023-01-27T09:26:28.575Z,16.40
2023-01-27T09:31:32.076Z,15.80
2023-01-27T09:36:42.832Z,14.30
2023-01-27T09:41:45.828Z,18.30
2023-01-27T09:47:09.089Z,21.40
2023-01-27T09:52:35.517Z,12.80
2023-01-27T09:58:03.863Z,18.90
2023-01-27T10:03:25.504Z,14.70
2023-01-27T10:08:56.773Z,15.30
2023-01-27T10:14:24.049Z,14.90
2023-01-27T10:19:48.527Z,16.70
2023-01-27T10:25:10.913Z,14.10
2023-01-27T10:30:18.850Z,14.10
2023-01-27T10:35:32.912Z,14.70
2023-01-27T10:40:57.407Z,16.30
2023-01-27T10:46:09.761Z,15.30
2023-01-27T10:51:35.065Z,11.60
2023-01-27T10:56:43.710Z,12.90
2023-01-27T11:01:53.681Z,13.30
2023-01-27T11:06:59.346Z,11.20
2023-01-27T11:12:06.514Z,13.40
2023-01-27T11:17:33.224Z,10.00
2023-01-27T11:22:55.876Z,11.10
2023-01-27T11:28:31.460Z,8.50
2023-01-27T11:34:03.127Z,8.50
2023-01-27T11:39:06.930Z,9.70
2023-01-27T11:44:19.606Z,9.10
2023-01-27T11:49:31.979Z,9.10
2023-01-27T11:54:44.257Z,7.10
2023-01-27T11:59:50.734Z,7.10
2023-01-27T12:05:12.985Z,7.20
2023-01-27T12:10:25.111Z,7.40
2023-01-27T12:15:31.209Z,7.80
2023-01-27T12:20:38.864Z,8.90
2023-01-27T12:25:49.614Z,6.70
2023-01-27T12:30:55.950Z,4.70
2023-01-27T12:36:16.686Z,6.00
2023-01-27T12:41:25.988Z,4.10
2023-01-27T12:46:32.012Z,4.40
2023-01-27T12:51:43.624Z,4.50
2023-01-27T12:56:46.732Z,3.70
2023-01-27T13:02:04.194Z,3.80
2023-01-27T13:07:13.468Z,4.80
2023-01-27T13:12:21.248Z,4.90
2023-01-27T13:17:36.548Z,5.10
2023-01-27T13:22:51.576Z,4.70
2023-01-27T13:27:58.932Z,4.10
2023-01-27T13:33:30.137Z,3.90
2023-01-27T13:38:39.153Z,5.00
2023-01-27T13:43:57.483Z,3.70
2023-01-27T13:49:15.380Z,3.90
2023-01-27T13:54:18.695Z,4.20
2023-01-27T13:59:36.796Z,4.70
2023-01-27T14:04:58.653Z,4.60
2023-01-27T14:10:22.234Z,3.90
2023-01-27T14:15:50.557Z,3.80
2023-01-27T14:21:40.924Z,4.10
2023-01-27T14:27:05.625Z,3.80
2023-01-27T14:37:38.971Z,3.90
2023-01-27T14:43:16.080Z,3.60
2023-01-27T14:48:53.390Z,3.60
2023-01-27T14:54:18.003Z,3.80
2023-01-27T14:59:37.699Z,3.20
2023-01-27T15:05:22.592Z,3.10
2023-01-27T15:10:28.787Z,3.30
2023-01-27T15:15:46.220Z,3.40
2023-01-27T15:21:00.945Z,3.20
2023-01-27T15:26:08.106Z,2.50
2023-01-27T15:31:17.256Z,3.60
2023-01-27T15:36:32.264Z,2.80
2023-01-27T15:41:36.831Z,2.90
2023-01-27T15:46:48.118Z,2.40
2023-01-27T15:51:53.519Z,3.40
2023-01-27T15:57:00.018Z,3.20
2023-01-27T16:02:17.442Z,2.00
2023-01-27T16:07:29.289Z,3.00
2023-01-27T16:12:43.279Z,2.60
2023-01-27T16:18:18.629Z,3.00
2023-01-27T16:23:36.995Z,2.90
2023-01-27T16:28:46.169Z,3.10
2023-01-27T16:33:55.799Z,2.40
2023-01-27T16:39:06.864Z,2.80
2023-01-27T16:44:48.402Z,3.10
2023-01-27T16:49:53.912Z,3.40
2023-01-27T16:54:58.382Z,3.10
2023-01-27T17:00:29.588Z,3.50
2023-01-27T17:05:32.890Z,3.40
2023-01-27T17:10:35.894Z,4.40
2023-01-27T17:15:41.687Z,3.60
2023-01-27T17:20:48.073Z,3.70
2023-01-27T17:25:51.855Z,3.50
2023-01-27T17:31:07.565Z,3.50
2023-01-27T17:36:12.440Z,2.90
2023-01-27T17:41:37.593Z,2.30
2023-01-27T17:46:41.477Z,2.40
2023-01-27T17:51:51.634Z,2.60
2023-01-27T17:57:03.669Z,2.40
2023-01-27T18:02:18.349Z,2.70
2023-01-27T18:07:21.790Z,2.70
2023-01-27T18:12:30.838Z,2.30
2023-01-27T18:17:33.764Z,2.80
2023-01-27T18:22:44.747Z,3.10
2023-01-27T18:27:53.346Z,4.10
2023-01-27T18:33:06.116Z,3.40
2023-01-27T18:38:32.773Z,2.70
2023-01-27T18:43:36.000Z,2.50
2023-01-27T18:48:40.106Z,4.10
2023-01-27T18:53:44.195Z,2.10
2023-01-27T18:58:47.246Z,3.80
2023-01-27T19:03:52.357Z,3.40
2023-01-27T19:08:55.411Z,3.00
2023-01-27T19:13:58.531Z,3.70
2023-01-27T19:19:02.424Z,4.00
2023-01-27T19:24:06.263Z,3.10
2023-01-27T19:29:11.105Z,3.70
2023-01-27T19:34:15.145Z,3.70
2023-01-27T19:39:18.153Z,2.80
2023-01-27T19:44:21.272Z,2.30
2023-01-27T19:49:24.476Z,2.90
2023-01-27T19:54:27.588Z,3.00
2023-01-27T19:59:30.595Z,3.00
2023-01-27T20:04:33.761Z,3.50
2023-01-27T20:09:36.727Z,4.10
2023-01-27T20:14:39.709Z,4.00
2023-01-27T20:19:42.835Z,5.20
2023-01-27T20:24:45.930Z,5.70
2023-01-27T20:29:49.046Z,5.20
2023-01-27T20:34:52.244Z,4.60
2023-01-27T20:39:55.459Z,3.80
2023-01-27T20:44:58.462Z,4.80
2023-01-27T20:50:01.381Z,5.80
2023-01-27T20:55:05.232Z,4.60
2023-01-27T21:00:11.421Z,6.30
2023-01-27T21:05:14.757Z,4.50
2023-01-27T21:10:19.300Z,4.40
2023-01-27T21:15:22.539Z,3.50
2023-01-27T21:20:25.666Z,4.70
2023-01-27T21:25:29.749Z,4.20
2023-01-27T21:30:32.791Z,4.20
2023-01-27T21:35:36.118Z,4.70
2023-01-27T21:40:40.515Z,4.80
2023-01-27T21:45:43.455Z,3.10
2023-01-27T21:50:51.819Z,4.30
2023-01-27T21:55:54.783Z,3.80
2023-01-27T22:00:57.841Z,5.60
2023-01-27T22:06:07.361Z,4.50
2023-01-27T22:11:12.453Z,5.30
2023-01-27T22:16:16.731Z,5.20
2023-01-27T22:21:19.751Z,5.90
2023-01-27T22:26:22.792Z,5.60
2023-01-27T22:31:25.776Z,6.30
2023-01-27T22:36:28.678Z,5.10
2023-01-27T22:41:32.117Z,4.30
2023-01-27T22:46:35.091Z,5.20
2023-01-27T22:51:38.510Z,5.50
2023-01-27T22:56:41.514Z,7.30
2023-01-27T23:01:44.418Z,7.20
2023-01-27T23:06:47.527Z,6.50
2023-01-27T23:11:50.438Z,5.80
2023-01-27T23:16:53.500Z,5.20
2023-01-27T23:21:56.653Z,5.60
2023-01-27T23:26:59.759Z,6.00
2023-01-27T23:32:02.931Z,4.60
2023-01-27T23:37:06.081Z,5.40
2023-01-27T23:42:09.298Z,4.90
2023-01-27T23:47:14.831Z,6.40
2023-01-27T23:52:17.764Z,5.50
2023-01-27T23:57:20.873Z,5.70
